Greenbush, Wisconsin
Current Conditions -  °F | °C
As of 11:53 PM on Thursday 30 Oct 2014 (Local Time) from KSBM Reporting Station
Overcast Overcast  
Wind Chill: 38°   Ceiling: 4800
Heat Index: 44°   Visibility: 10mi
Dew Point: 33°   Wind: 12mph
Humidity: 65%   Direction: 310°NW
Pressure: 30"   Gusts: NA
Location:  43.78°N, 88.08°W
Report Text: KSBM 310453Z AUTO 31010KT 10SM SCT040 OVC048 07/01 A3000 RMK AO2 SLP164 T00670006
Loading
Personal Weather Stations






























Interactive Weather Map
Tropical Storm Tracking
New forecast layout! Learn more

10-Day Weather Forecast

Advertisements
Track Severe Weather on mobile